Thursday, August 16, 2018, 1:56 AM EDT
Back to Local

KDOV, Dover Air Force Base

Location: Dover, DE, United States Lat: 39.133
Local Time: 1:56 AM EDT ( 5:56 GMT) Lon: -75.467
Time Zone: US/Eastern Elev: 29 ft

Show me the last for .
Show Coded

Time T Td Feel RH Dir Speed Gust Alt SLP Vis Weather Sky Remarks
2018-08-16 00:56 74 68 77 82 230° 6 - 30.04 30.05 10 CLR 24-hr Min Temp (1am): 71.1°F
24-hr Max Temp (1am): 87.6°F
2018-08-15 23:56 75 69 79 80 230° 3 - 30.03 30.04 10 CLR None
2018-08-15 22:56 76 69 79 77 240° 6 - 30.03 30.04 10 CLR None
2018-08-15 21:56 77 69 80 77 220° 6 - 30.02 30.03 10 CLR None
2018-08-15 20:56 79 68 82 70 210° 5 - 30.00 30.01 10 CLR None
2018-08-15 19:56 81 69 85 66 220° 7 - 29.99 30.00 10 BKN210 6-hr Min Temp (8pm): 81.3°F
6-hr Max Temp (8pm): 87.6°F
2018-08-15 18:56 84 68 88 58 240° 7 - 29.97 29.98 10 SCT210 None
2018-08-15 17:56 86 69 91 55 240° 8 - 29.97 29.98 10 SCT220 None
2018-08-15 16:56 86 68 91 54 250° 14 - 29.97 29.98 10 FEW050 SCT210 None
2018-08-15 14:56 87 69 92 54 270° 6 - 29.98 29.99 10 SCT050 None
2018-08-15 13:56 86 67 89 53 260° 10 - 29.98 29.99 10 FEW047 FEW200 6-hr Min Temp (2pm): 73.9°F
6-hr Max Temp (2pm): 86.5°F
2018-08-15 12:56 85 68 89 56 300° 9 - 29.98 29.99 10 FEW200 None
2018-08-15 11:56 84 69 88 59 260° 9 - 29.99 30.00 10 CLR None
2018-08-15 10:56 82 69 86 63 300° 10 - 29.99 30.00 10 CLR None
2018-08-15 09:56 80 68 83 68 290° 7 - 29.98 29.99 10 CLR None
2018-08-15 08:56 77 68 80 74 270° 7 - 29.97 29.98 10 CLR None
2018-08-15 07:56 74 67 77 80 260° 8 - 29.95 29.96 10 CLR 6-hr Min Temp (8am): 71.1°F
6-hr Max Temp (8am): 73.8°F
2018-08-15 06:56 71 66 76 84 250° 9 - 29.95 29.96 10 CLR None
2018-08-15 05:56 71 66 76 84 250° 8 - 29.93 29.94 10 CLR None
2018-08-15 04:56 72 66 76 83 240° 9 - 29.92 29.93 10 FEW120 None
2018-08-15 03:56 72 67 76 83 240° 7 - 29.92 29.93 10 CLR None
2018-08-15 02:56 73 67 77 80 240° 9 - 29.92 29.93 10 FEW080 SCT095 None

Support USWX by starting your Amazon purchase here.